createdAt,value
2022-10-18T00:02:03.218Z,100.00
2022-10-18T00:04:33.835Z,100.00
2022-10-18T00:07:02.623Z,100.00
2022-10-18T00:09:33.490Z,100.00
2022-10-18T00:12:03.366Z,100.00
2022-10-18T00:14:32.094Z,100.00
2022-10-18T00:17:00.780Z,100.00
2022-10-18T00:19:29.608Z,100.00
2022-10-18T00:21:58.285Z,100.00
2022-10-18T00:24:26.952Z,100.00
2022-10-18T00:26:55.550Z,100.00
2022-10-18T00:29:53.970Z,100.00
2022-10-18T00:32:23.024Z,100.00
2022-10-18T00:34:51.749Z,100.00
2022-10-18T00:37:20.855Z,100.00
2022-10-18T00:39:49.619Z,100.00
2022-10-18T00:42:20.396Z,100.00
2022-10-18T00:44:52.071Z,100.00
2022-10-18T00:47:30.516Z,100.00
2022-10-18T00:49:58.991Z,100.00
2022-10-18T00:52:39.256Z,100.00
2022-10-18T00:55:09.717Z,100.00
2022-10-18T00:57:40.493Z,100.00
2022-10-18T01:00:10.129Z,100.00
2022-10-18T01:02:39.913Z,100.00
2022-10-18T01:05:09.541Z,100.00
2022-10-18T01:07:52.382Z,100.00
2022-10-18T01:10:40.485Z,100.00
2022-10-18T01:13:25.813Z,100.00
2022-10-18T01:16:25.519Z,100.00
2022-10-18T01:18:59.671Z,100.00
2022-10-18T01:21:36.911Z,100.00
2022-10-18T01:24:28.132Z,100.00
2022-10-18T01:27:20.601Z,100.00
2022-10-18T01:30:04.111Z,100.00
2022-10-18T01:32:35.690Z,100.00
2022-10-18T01:35:07.321Z,100.00
2022-10-18T01:37:37.606Z,100.00
2022-10-18T01:40:08.834Z,100.00
2022-10-18T01:42:37.445Z,100.00
2022-10-18T01:45:08.149Z,100.00
2022-10-18T01:47:37.219Z,100.00
2022-10-18T01:50:07.765Z,100.00
2022-10-18T01:52:36.435Z,100.00
2022-10-18T01:55:05.554Z,100.00
2022-10-18T01:58:07.148Z,100.00
2022-10-18T02:00:42.161Z,100.00
2022-10-18T02:03:25.545Z,100.00
2022-10-18T02:06:12.397Z,100.00
2022-10-18T02:08:49.936Z,100.00
2022-10-18T02:11:19.489Z,100.00
2022-10-18T02:13:51.024Z,100.00
2022-10-18T02:16:22.681Z,100.00
2022-10-18T02:18:59.937Z,100.00
2022-10-18T02:21:30.659Z,100.00
2022-10-18T02:24:02.309Z,100.00
2022-10-18T02:26:31.551Z,100.00
2022-10-18T02:29:00.562Z,100.00
2022-10-18T02:31:42.115Z,100.00
2022-10-18T02:34:13.669Z,100.00
2022-10-18T02:36:45.240Z,100.00
2022-10-18T02:39:16.791Z,100.00
2022-10-18T02:41:45.546Z,100.00
2022-10-18T02:44:16.904Z,100.00
2022-10-18T02:46:46.665Z,100.00
2022-10-18T02:49:15.315Z,100.00
2022-10-18T02:51:43.985Z,100.00
2022-10-18T02:54:12.646Z,100.00
2022-10-18T02:56:41.382Z,100.00
2022-10-18T02:59:10.093Z,100.00
2022-10-18T03:01:38.788Z,100.00
2022-10-18T03:04:07.554Z,100.00
2022-10-18T03:06:36.469Z,100.00
2022-10-18T03:09:06.901Z,100.00
2022-10-18T03:11:35.543Z,100.00
2022-10-18T03:14:04.208Z,100.00
2022-10-18T03:16:34.031Z,100.00
2022-10-18T03:19:02.643Z,100.00
2022-10-18T03:21:31.234Z,100.00
2022-10-18T03:23:59.931Z,100.00
2022-10-18T03:26:28.557Z,100.00
2022-10-18T03:28:57.367Z,100.00
2022-10-18T03:31:26.021Z,100.00
2022-10-18T03:33:54.634Z,100.00
2022-10-18T03:36:23.200Z,100.00
2022-10-18T03:38:51.885Z,100.00
2022-10-18T03:41:20.987Z,100.00
2022-10-18T03:43:51.084Z,100.00
2022-10-18T03:46:20.885Z,100.00
2022-10-18T03:48:49.449Z,100.00
2022-10-18T03:51:18.000Z,100.00
2022-10-18T03:53:46.595Z,100.00
2022-10-18T03:56:17.241Z,100.00
2022-10-18T03:58:45.739Z,100.00
2022-10-18T04:01:14.425Z,100.00
2022-10-18T04:03:43.077Z,100.00
2022-10-18T04:06:11.713Z,100.00
2022-10-18T04:08:40.398Z,100.00
2022-10-18T04:11:10.971Z,100.00
2022-10-18T04:13:39.734Z,100.00
2022-10-18T04:16:08.402Z,100.00
2022-10-18T04:18:37.076Z,100.00
2022-10-18T04:21:05.743Z,100.00
2022-10-18T04:23:37.881Z,100.00
2022-10-18T04:26:04.794Z,100.00
2022-10-18T04:28:34.446Z,100.00
2022-10-18T04:31:03.160Z,100.00
2022-10-18T04:33:31.683Z,100.00
2022-10-18T04:36:02.999Z,100.00
2022-10-18T04:38:31.635Z,100.00
2022-10-18T04:41:00.316Z,100.00
2022-10-18T04:43:28.988Z,100.00
2022-10-18T04:45:57.590Z,100.00
2022-10-18T04:48:26.249Z,100.00
2022-10-18T04:50:54.878Z,100.00
2022-10-18T04:53:23.448Z,100.00
2022-10-18T04:55:52.480Z,100.00
2022-10-18T04:58:21.222Z,100.00
2022-10-18T05:00:50.679Z,100.00
2022-10-18T05:03:19.533Z,100.00
2022-10-18T05:06:01.226Z,100.00
2022-10-18T05:08:18.554Z,100.00
2022-10-18T05:10:47.916Z,100.00
2022-10-18T05:13:18.064Z,100.00
2022-10-18T05:15:48.075Z,100.00
2022-10-18T05:18:16.662Z,100.00
2022-10-18T05:20:45.341Z,100.00
2022-10-18T05:23:14.013Z,100.00
2022-10-18T05:25:45.903Z,100.00
2022-10-18T05:28:38.234Z,100.00
2022-10-18T05:30:45.225Z,100.00
2022-10-18T05:33:13.804Z,100.00
2022-10-18T05:35:42.693Z,100.00
2022-10-18T05:38:11.344Z,100.00
2022-10-18T05:40:40.744Z,100.00
2022-10-18T05:43:09.406Z,100.00
2022-10-18T05:45:38.039Z,100.00
2022-10-18T05:48:07.902Z,100.00
2022-10-18T05:50:39.541Z,100.00
2022-10-18T05:53:11.976Z,100.00
2022-10-18T05:55:37.190Z,100.00
2022-10-18T05:58:05.940Z,100.00
2022-10-18T06:00:34.661Z,100.00
2022-10-18T06:03:03.220Z,100.00
2022-10-18T06:05:31.904Z,100.00
2022-10-18T06:08:00.592Z,100.00
2022-10-18T06:10:29.179Z,100.00
2022-10-18T06:12:57.794Z,100.00
2022-10-18T06:15:26.361Z,100.00
2022-10-18T06:17:55.106Z,100.00
2022-10-18T06:20:23.698Z,100.00
2022-10-18T06:22:55.497Z,100.00
2022-10-18T06:25:24.296Z,100.00
2022-10-18T06:27:52.984Z,100.00
2022-10-18T06:30:21.575Z,100.00
2022-10-18T06:32:53.024Z,100.00
2022-10-18T06:35:21.635Z,100.00
2022-10-18T06:37:50.228Z,100.00
2022-10-18T06:40:20.037Z,100.00
2022-10-18T06:43:00.018Z,100.00
2022-10-18T06:45:20.605Z,100.00
2022-10-18T06:47:52.009Z,100.00
2022-10-18T06:50:20.580Z,100.00
2022-10-18T06:52:50.718Z,100.00
2022-10-18T06:55:19.383Z,100.00
2022-10-18T06:57:48.139Z,100.00
2022-10-18T07:00:16.916Z,100.00
2022-10-18T07:02:45.484Z,100.00
2022-10-18T07:05:14.159Z,100.00
2022-10-18T07:07:42.860Z,100.00
2022-10-18T07:10:13.097Z,100.00
2022-10-18T07:12:41.910Z,100.00
2022-10-18T07:15:11.097Z,100.00
2022-10-18T07:17:39.731Z,100.00
2022-10-18T07:20:08.724Z,100.00
2022-10-18T07:22:38.272Z,100.00
2022-10-18T07:25:07.506Z,100.00
2022-10-18T07:27:43.840Z,100.00
2022-10-18T07:30:15.647Z,100.00
2022-10-18T07:32:44.338Z,100.00
2022-10-18T07:35:13.150Z,100.00
2022-10-18T07:37:41.803Z,100.00
2022-10-18T07:40:12.474Z,100.00
2022-10-18T07:42:41.113Z,100.00
2022-10-18T07:45:11.910Z,100.00
2022-10-18T07:47:42.298Z,100.00
2022-10-18T07:50:16.637Z,100.00
2022-10-18T07:52:46.266Z,100.00
2022-10-18T07:55:15.154Z,100.00
2022-10-18T07:57:43.915Z,100.00
2022-10-18T08:00:14.351Z,100.00
2022-10-18T08:05:55.169Z,100.00
2022-10-18T08:08:29.154Z,100.00
2022-10-18T08:10:59.446Z,100.00
2022-10-18T08:13:28.174Z,100.00
2022-10-18T08:16:01.686Z,100.00
2022-10-18T08:18:31.955Z,100.00
2022-10-18T08:21:05.275Z,100.00
2022-10-18T08:23:34.371Z,100.00
2022-10-18T08:26:05.228Z,100.00
2022-10-18T08:28:35.804Z,100.00
2022-10-18T08:31:09.923Z,100.00
2022-10-18T08:33:39.655Z,100.00
2022-10-18T08:36:10.897Z,100.00
2022-10-18T08:38:41.428Z,100.00
2022-10-18T08:41:40.135Z,100.00
2022-10-18T08:44:24.161Z,100.00
2022-10-18T08:46:55.811Z,100.00
2022-10-18T08:49:47.083Z,100.00
2022-10-18T08:52:21.855Z,100.00
2022-10-18T08:55:09.194Z,100.00
2022-10-18T08:57:39.438Z,100.00
2022-10-18T09:00:12.579Z,100.00
2022-10-18T09:03:01.056Z,100.00
2022-10-18T09:05:36.183Z,100.00
2022-10-18T09:08:19.819Z,100.00
2022-10-18T09:11:10.991Z,100.00
2022-10-18T09:14:06.234Z,100.00
2022-10-18T09:16:40.828Z,100.00
2022-10-18T09:19:15.337Z,100.00
2022-10-18T09:21:56.154Z,100.00
2022-10-18T09:24:30.452Z,100.00
2022-10-18T09:27:02.271Z,100.00
2022-10-18T09:29:54.702Z,100.00
2022-10-18T09:32:41.533Z,100.00
2022-10-18T09:35:25.438Z,100.00
2022-10-18T09:37:59.896Z,100.00
2022-10-18T09:40:34.446Z,100.00
2022-10-18T09:43:14.986Z,100.00
2022-10-18T09:45:46.487Z,100.00
2022-10-18T09:48:24.297Z,100.00
2022-10-18T09:51:13.411Z,100.00
2022-10-18T09:54:04.935Z,100.00
2022-10-18T09:56:39.449Z,100.00
2022-10-18T09:59:11.406Z,100.00
2022-10-18T10:01:41.919Z,100.00
2022-10-18T10:04:12.444Z,100.00
2022-10-18T10:06:44.176Z,100.00
2022-10-18T10:09:18.951Z,100.00
2022-10-18T10:11:53.471Z,100.00
2022-10-18T10:14:28.287Z,100.00
2022-10-18T10:17:05.991Z,100.00
2022-10-18T10:19:40.526Z,100.00
2022-10-18T10:22:15.665Z,84.37
2022-10-18T10:28:49.750Z,55.35
2022-10-18T10:31:30.153Z,52.82
2022-10-18T10:34:17.788Z,46.60
2022-10-18T10:36:55.241Z,44.68
2022-10-18T10:39:28.513Z,43.84
2022-10-18T10:42:01.897Z,42.88
2022-10-18T10:44:33.486Z,41.36
2022-10-18T10:47:02.203Z,40.47
2022-10-18T10:49:42.617Z,41.70
2022-10-18T10:52:27.265Z,38.63
2022-10-18T10:55:05.882Z,37.32
2022-10-18T10:57:28.958Z,38.17
2022-10-18T11:00:00.347Z,37.38
2022-10-18T11:02:36.793Z,36.08
2022-10-18T11:05:27.104Z,36.02
2022-10-18T11:08:04.006Z,36.17
2022-10-18T11:10:38.681Z,34.16
2022-10-18T11:13:26.500Z,34.79
2022-10-18T11:15:59.453Z,34.85
2022-10-18T11:18:48.165Z,34.45
2022-10-18T11:21:19.923Z,34.70
2022-10-18T11:23:48.620Z,33.20
2022-10-18T11:26:29.236Z,33.40
2022-10-18T11:29:23.865Z,33.19
2022-10-18T11:31:55.495Z,32.06
2022-10-18T11:34:29.855Z,32.00
2022-10-18T11:37:26.287Z,30.98
2022-10-18T11:40:00.089Z,31.10
2022-10-18T11:42:43.769Z,31.09
2022-10-18T11:45:18.192Z,29.82
2022-10-18T11:47:52.315Z,30.34
2022-10-18T11:50:32.318Z,29.85
2022-10-18T11:56:24.615Z,30.32
2022-10-18T11:59:15.393Z,28.57
2022-10-18T12:02:04.538Z,28.87
2022-10-18T12:04:53.059Z,28.36
2022-10-18T12:07:27.731Z,27.72
2022-10-18T12:10:03.410Z,26.02
2022-10-18T12:12:56.076Z,25.33
2022-10-18T12:15:28.973Z,25.46
2022-10-18T12:18:03.470Z,26.01
2022-10-18T12:20:38.046Z,24.49
2022-10-18T12:23:21.025Z,24.03
2022-10-18T12:25:57.989Z,23.72
2022-10-18T12:31:54.315Z,24.73
2022-10-18T12:34:27.557Z,24.34
2022-10-18T12:37:19.098Z,23.63
2022-10-18T12:40:11.465Z,23.45
2022-10-18T12:42:39.906Z,23.28
2022-10-18T12:45:17.075Z,22.68
2022-10-18T12:47:50.105Z,23.05
2022-10-18T12:50:35.131Z,22.99
2022-10-18T12:53:07.036Z,23.01
2022-10-18T12:55:38.918Z,22.74
2022-10-18T12:58:13.848Z,23.28
2022-10-18T13:00:46.044Z,23.32
2022-10-18T13:03:21.584Z,23.02
2022-10-18T13:05:56.557Z,23.85
2022-10-18T13:08:34.690Z,23.35
2022-10-18T13:11:12.126Z,23.19
2022-10-18T13:13:50.950Z,24.47
2022-10-18T13:16:32.794Z,23.60
2022-10-18T13:19:23.214Z,22.63
2022-10-18T13:22:00.504Z,23.41
2022-10-18T13:24:47.110Z,22.70
2022-10-18T13:27:42.414Z,23.27
2022-10-18T13:30:13.070Z,24.32
2022-10-18T13:33:13.491Z,23.96
2022-10-18T13:35:48.939Z,25.25
2022-10-18T13:38:41.542Z,24.17
2022-10-18T13:41:16.486Z,22.95
2022-10-18T13:43:52.968Z,23.56
2022-10-18T13:46:29.544Z,23.08
2022-10-18T13:49:38.092Z,23.43
2022-10-18T13:52:28.952Z,23.38
2022-10-18T13:55:22.857Z,23.39
2022-10-18T13:58:05.639Z,23.17
2022-10-18T14:00:56.754Z,23.93
2022-10-18T14:03:58.710Z,24.61
2022-10-18T14:06:30.263Z,24.30
2022-10-18T14:09:26.400Z,24.57
2022-10-18T14:11:55.461Z,24.30
2022-10-18T14:14:38.365Z,24.69
2022-10-18T14:17:18.628Z,24.12
2022-10-18T14:20:06.228Z,23.84
2022-10-18T14:22:41.187Z,24.32
2022-10-18T14:25:35.622Z,24.08
2022-10-18T14:28:27.410Z,24.78
2022-10-18T14:31:09.174Z,25.13
2022-10-18T14:33:41.537Z,25.75
2022-10-18T14:36:16.020Z,25.52
2022-10-18T14:38:53.899Z,26.71
2022-10-18T14:41:28.516Z,26.71
2022-10-18T14:44:17.576Z,26.16
2022-10-18T14:46:51.780Z,26.18
2022-10-18T14:49:22.502Z,25.77
2022-10-18T14:51:56.992Z,25.91
2022-10-18T14:54:36.393Z,26.31
2022-10-18T14:57:08.534Z,26.91
2022-10-18T14:59:46.328Z,28.57
2022-10-18T15:02:24.237Z,27.14
2022-10-18T15:05:09.873Z,27.20
2022-10-18T15:07:49.462Z,28.44
2022-10-18T15:10:27.549Z,29.25
2022-10-18T15:13:10.929Z,30.66
2022-10-18T15:15:36.031Z,31.93
2022-10-18T15:18:08.787Z,31.07
2022-10-18T15:20:43.543Z,33.22
2022-10-18T15:23:27.126Z,34.84
2022-10-18T15:26:05.047Z,36.91
2022-10-18T15:28:36.708Z,37.54
2022-10-18T15:31:06.992Z,36.31
2022-10-18T15:33:35.916Z,37.67
2022-10-18T15:36:17.683Z,38.49
2022-10-18T15:38:49.194Z,38.39
2022-10-18T15:41:42.394Z,39.60
2022-10-18T15:44:20.015Z,40.76
2022-10-18T15:46:49.734Z,41.62
2022-10-18T15:49:54.582Z,41.85
2022-10-18T15:52:27.906Z,42.92
2022-10-18T15:54:57.357Z,44.38
2022-10-18T15:57:29.124Z,44.38
2022-10-18T16:00:02.776Z,44.15
2022-10-18T16:02:32.015Z,44.85
2022-10-18T16:05:03.577Z,46.53
2022-10-18T16:07:32.478Z,47.81
2022-10-18T16:10:01.436Z,50.19
2022-10-18T16:12:29.981Z,51.02
2022-10-18T16:15:05.134Z,50.59
2022-10-18T16:18:09.266Z,51.84
2022-10-18T16:47:49.482Z,63.14
2022-10-18T16:50:22.050Z,64.55
2022-10-18T16:52:51.266Z,69.32
2022-10-18T16:55:27.793Z,64.29
2022-10-18T16:58:09.052Z,68.03
2022-10-18T17:00:43.283Z,66.23
2022-10-18T17:03:16.450Z,67.77
2022-10-18T17:05:48.092Z,65.51
2022-10-18T17:08:23.128Z,67.06
2022-10-18T17:10:55.304Z,74.46
2022-10-18T17:13:25.276Z,76.73
2022-10-18T17:15:55.682Z,78.48
2022-10-18T17:18:32.959Z,73.75
2022-10-18T17:21:03.595Z,72.00
2022-10-18T17:23:39.008Z,74.99
2022-10-18T17:26:45.561Z,83.73
2022-10-18T17:35:26.495Z,83.68
2022-10-18T17:37:55.275Z,91.26
2022-10-18T17:40:25.626Z,90.46
2022-10-18T17:46:20.597Z,83.83
2022-10-18T17:52:07.153Z,83.99
2022-10-18T17:54:36.041Z,84.80
2022-10-18T18:00:39.244Z,89.36
2022-10-18T18:03:06.424Z,91.95
2022-10-18T18:05:42.440Z,96.94
2022-10-18T18:12:16.593Z,100.00
2022-10-18T18:14:51.763Z,100.00
2022-10-18T18:20:32.399Z,100.00
2022-10-18T18:23:26.411Z,100.00
2022-10-18T18:26:03.972Z,100.00
2022-10-18T18:28:33.172Z,100.00
2022-10-18T19:24:06.138Z,100.00
2022-10-18T19:26:42.610Z,100.00
2022-10-18T19:29:14.629Z,100.00
2022-10-18T19:31:43.874Z,100.00
2022-10-18T19:34:14.350Z,100.00
2022-10-18T19:36:45.224Z,100.00
2022-10-18T19:39:18.425Z,100.00
2022-10-18T19:41:50.765Z,100.00
2022-10-18T19:44:20.458Z,100.00
2022-10-18T19:46:50.296Z,100.00
2022-10-18T19:49:19.081Z,100.00
2022-10-18T19:51:47.950Z,100.00
2022-10-18T20:11:25.861Z,100.00
2022-10-18T20:13:55.119Z,100.00
2022-10-18T20:16:28.400Z,100.00
2022-10-18T21:04:38.803Z,100.00
2022-10-18T21:07:08.296Z,100.00
2022-10-18T21:09:36.881Z,100.00
2022-10-18T21:12:07.285Z,100.00
2022-10-18T21:14:35.858Z,100.00
2022-10-18T21:17:04.549Z,100.00
2022-10-18T21:19:33.344Z,100.00
2022-10-18T21:24:59.208Z,100.00
2022-10-18T21:27:27.927Z,100.00
2022-10-18T21:29:56.538Z,100.00
2022-10-18T21:32:25.225Z,100.00
2022-10-18T21:34:53.820Z,100.00
2022-10-18T21:37:22.381Z,100.00
2022-10-18T21:39:51.031Z,100.00
2022-10-18T21:42:22.150Z,100.00
2022-10-18T21:44:53.255Z,100.00
2022-10-18T21:47:21.830Z,100.00
2022-10-18T21:49:54.082Z,100.00
2022-10-18T21:52:22.692Z,100.00
2022-10-18T21:54:51.217Z,100.00
2022-10-18T21:57:21.206Z,100.00
2022-10-18T21:59:49.877Z,100.00
2022-10-18T22:02:18.384Z,100.00
2022-10-18T22:04:47.033Z,100.00
2022-10-18T22:07:15.652Z,100.00
2022-10-18T22:09:44.208Z,100.00
2022-10-18T22:12:12.855Z,100.00
2022-10-18T22:14:41.440Z,100.00
2022-10-18T22:17:10.011Z,100.00
2022-10-18T22:19:38.783Z,100.00
2022-10-18T22:22:07.356Z,100.00
2022-10-18T22:27:04.777Z,100.00
2022-10-18T22:29:33.443Z,100.00
2022-10-18T22:32:02.031Z,100.00
2022-10-18T22:34:30.706Z,100.00
2022-10-18T22:36:59.292Z,100.00
2022-10-18T22:39:27.786Z,100.00
2022-10-18T22:41:57.367Z,100.00
2022-10-18T22:44:30.511Z,100.00
2022-10-18T22:46:59.070Z,100.00
2022-10-18T22:49:27.689Z,100.00
2022-10-18T22:51:56.298Z,100.00
2022-10-18T22:54:24.913Z,100.00
2022-10-18T22:56:53.502Z,100.00
2022-10-18T22:59:22.173Z,100.00
2022-10-18T23:01:50.832Z,100.00
2022-10-18T23:04:19.486Z,100.00
2022-10-18T23:06:48.115Z,100.00
2022-10-18T23:09:16.633Z,100.00
2022-10-18T23:11:47.087Z,100.00
2022-10-18T23:14:15.658Z,100.00
2022-10-18T23:16:44.872Z,100.00
2022-10-18T23:19:16.048Z,100.00
2022-10-18T23:21:44.680Z,100.00
2022-10-18T23:24:13.366Z,100.00
2022-10-18T23:26:42.001Z,100.00
2022-10-18T23:29:10.812Z,100.00
2022-10-18T23:31:40.993Z,100.00
2022-10-18T23:34:10.550Z,100.00
2022-10-18T23:36:39.247Z,100.00
2022-10-18T23:39:07.872Z,100.00
2022-10-18T23:41:38.755Z,100.00
2022-10-18T23:44:08.570Z,100.00
2022-10-18T23:46:37.211Z,100.00
2022-10-18T23:49:05.957Z,100.00
2022-10-18T23:51:34.542Z,100.00
2022-10-18T23:54:03.121Z,100.00
2022-10-18T23:56:31.727Z,100.00
2022-10-18T23:59:00.279Z,100.00
